Flight Track Log - Related Links

Times and Time Zones

All times are in EDT time to prevent confusion due to time zone crossing. See the FLG3795 flight status page for this flight to view local times or setup timezone preferences in your user account.

Time Position Orientation Groundspeed Altitude Reporting Facility
EDT Latitude Longitude Course Direction KTS MPH feet Rate Location/Type
Sun 03:33:30 PM 33.6478 -84.3808 320° Northwest 444 511 2,500  Level Atlanta Center
Sun 03:34:30 PM 33.6603 -84.3083 78° East 346 398 4,000 1,650 Climbing Atlanta Center
Sun 03:35:30 PM 33.6961 -84.2411 57° Northeast 260 299 5,800 2,050 Climbing Atlanta Center
Sun 03:36:00 PM 33.8976 -84.2309 320° Northwest  Level FlightAware Approximate
Sun 03:36:30 PM 33.7794 -84.2811 338° Northwest 287 330 8,100  Level Atlanta Center
Sun 03:37:00 PM 33.9838 -84.3170 320° Northwest  Level FlightAware Approximate
Sun 03:37:30 PM 33.8461 -84.3239 332° Northwest 308 354 10,100  Level Atlanta Center
Sun 03:38:00 PM 34.0699 -84.4032 320° Northwest  Level FlightAware Approximate
Sun 03:38:30 PM 33.9294 -84.3742 333° Northwest 320 368 11,100  Level Atlanta Center
Sun 03:39:30 PM 34.0211 -84.4272 334° Northwest 347 399 12,700 1,600 Climbing Atlanta Center
Sun 03:40:30 PM 34.1108 -84.4853 332° Northwest 358 412 14,300 1,450 Climbing Atlanta Center
Sun 03:41:30 PM 34.2022 -84.5436 332° Northwest 365 420 15,600 850 Climbing Atlanta Center
Sun 03:42:30 PM 34.3003 -84.5994 335° Northwest 378 435 16,000 350 Climbing Atlanta Center
Sun 03:43:30 PM 34.4128 -84.6256 349° North 400 460 16,300 400 Climbing Atlanta Center
Sun 03:44:30 PM 34.5317 -84.6567 348° North 423 487 16,800 1,100 Climbing Atlanta Center
Sun 03:45:30 PM 34.6419 -84.6875 347° North 423 487 18,500 1,400 Climbing Atlanta Center
Sun 03:46:30 PM 34.7503 -84.7189 347° North 406 467 19,600 1,050 Climbing Atlanta Center
Sun 03:47:30 PM 34.8628 -84.7450 349° North 401 461 20,600 1,000 Climbing Atlanta Center
Sun 03:48:30 PM 34.9669 -84.7714 348° North 401 461 21,600 1,000 Climbing Atlanta Center
Sun 03:49:30 PM 35.0756 -84.7975 349° North 391 450 22,600 1,000 Climbing Atlanta Center
Sun 03:50:30 PM 35.1817 -84.8239 349° North 391 450 23,600 1,000 Climbing Atlanta Center
Sun 03:51:30 PM 35.2878 -84.8503 349° North 391 450 24,600 1,000 Climbing Atlanta Center
Sun 03:52:30 PM 35.3942 -84.8769 348° North 391 450 25,600 1,000 Climbing Atlanta Center
Sun 03:53:30 PM 35.4983 -84.9036 348° North 391 450 26,600 1,000 Climbing Atlanta Center
Sun 03:54:30 PM 35.6025 -84.9300 348° North 391 450 27,600 850 Climbing Atlanta Center
Sun 03:55:30 PM 35.7044 -84.9569 348° North 385 443 28,300 550 Climbing Atlanta Center
Sun 03:56:30 PM 35.7917 -84.9989 339° North 380 437 28,700 485 Climbing Atlanta Center
Sun 03:57:46 PM 35.9317 -85.0647 339° North 389 448 29,400 522 Climbing Indianapolis Center
Sun 03:58:48 PM 36.0408 -85.0803 353° North 389 448 29,900 290 Climbing Indianapolis Center
Sun 03:59:50 PM 36.1522 -85.0553 10° North 403 464 30,000 48 Climbing Indianapolis Center
Sun 04:00:52 PM 36.2619 -85.0794 350° North 398 458 30,000  Level Indianapolis Center
Sun 04:01:54 PM 36.3747 -85.1081 348° North 409 471 30,000  Level Indianapolis Center
Sun 04:02:56 PM 36.4867 -85.1375 348° North 411 473 30,000  Level Indianapolis Center
Sun 04:03:58 PM 36.6022 -85.1689 348° North 422 486 30,000  Level Indianapolis Center
Sun 04:04:59 PM 36.7408 -85.2064 348° North 424 488 30,000  Level Indianapolis Center
Sun 04:06:01 PM 36.8578 -85.2369 348° North 428 493 30,000  Level Indianapolis Center
Sun 04:07:03 PM 36.9756 -85.2681 348° North 432 497 30,000  Level Indianapolis Center
Sun 04:08:05 PM 37.0975 -85.3025 347° North 432 497 30,000  Level Indianapolis Center
Sun 04:09:07 PM 37.2156 -85.3336 348° North 431 496 30,000  Level Indianapolis Center
Sun 04:10:09 PM 37.3350 -85.3653 348° North 434 499 30,000  Level Indianapolis Center
Sun 04:11:11 PM 37.4539 -85.3981 348° North 435 501 30,000  Level Indianapolis Center
Sun 04:12:13 PM 37.5719 -85.4308 348° North 434 499 30,000  Level Indianapolis Center
Sun 04:13:14 PM 37.7100 -85.4706 347° North 434 499 30,000  Level Indianapolis Center
Sun 04:14:16 PM 37.8308 -85.5028 348° North 440 506 30,000  Level Indianapolis Center
Sun 04:15:18 PM 37.9464 -85.5325 349° North 447 514 30,000  Level Indianapolis Center
Sun 04:16:20 PM 38.0650 -85.5597 350° North 438 504 30,000  Level Indianapolis Center
Sun 04:17:22 PM 38.1886 -85.5431 North 443 510 30,000  Level Indianapolis Center
Sun 04:18:24 PM 38.3169 -85.5275 North 439 505 30,000  Level Indianapolis Center
Sun 04:19:26 PM 38.4564 -85.5108 North 440 506 30,000  Level Indianapolis Center
Sun 04:20:27 PM 38.5769 -85.4956 North 436 502 30,000  Level Indianapolis Center
Sun 04:21:29 PM 38.7039 -85.4814 North 435 501 30,000  Level Indianapolis Center
Sun 04:22:31 PM 38.8244 -85.4669 North 435 501 30,000 -435 Level Indianapolis Center
Sun 04:23:33 PM 38.9467 -85.4514 North 441 507 29,100 -484 Descending Indianapolis Center
Sun 04:24:35 PM 39.0725 -85.4358 North 455 524 29,000 -732 Descending Indianapolis Center
Sun 04:25:36 PM 39.1961 -85.4203 North 450 518 27,600 -1,756 Descending Indianapolis Center
Sun 04:26:38 PM 39.3167 -85.4044 North 441 507 25,400 -1,742 Descending Indianapolis Center
Sun 04:27:40 PM 39.4581 -85.3867 North 428 493 24,000 -1,210 Descending Indianapolis Center
Sun 04:28:42 PM 39.5731 -85.3728 North 419 482 22,900 -1,694 Descending Indianapolis Center
Sun 04:29:44 PM 39.6883 -85.3572 North 420 483 20,500 -2,371 Descending Indianapolis Center
Sun 04:30:46 PM 39.7983 -85.3431 North 405 466 18,000 -2,341 Descending Indianapolis Center
Sun 04:31:47 PM 39.9025 -85.3139 12° North 386 444 15,700 -2,585 Descending Indianapolis Center
Sun 04:32:49 PM 40.0231 -85.2692 16° North 378 435 12,700 -2,177 Descending Indianapolis Center
Sun 04:33:51 PM 40.1164 -85.2353 16° North 356 410 11,200 -774 Descending Indianapolis Center
Sun 04:34:53 PM 40.2092 -85.2256 North 337 388 11,100 -48 Descending Indianapolis Center
Sun 04:35:55 PM 40.3050 -85.2408 353° North 347 399 11,100 -56 Level Indianapolis Center
Sun 04:36:41 PM 40.3844 -85.2411 360° North 360 414 11,000 -111 Descending Chicago Center
Sun 04:37:43 PM 40.4778 -85.2433 359° North 345 397 10,900 -677 Descending Chicago Center
Sun 04:38:45 PM 40.5611 -85.2342 North 314 361 9,600 -1,355 Descending Chicago Center
Sun 04:39:47 PM 40.6431 -85.2242 North 300 345 8,100 -1,645 Descending Chicago Center
Sun 04:40:49 PM 40.7311 -85.2136 North 297 342 6,200 -1,488 Descending Chicago Center
Sun 04:41:52 PM 40.8069 -85.1917 12° North 287 330 5,000 -576 Descending Chicago Center
Sun 04:42:54 PM 40.8928 -85.1397 25° Northeast 284 327 5,000 -339 Level Chicago Center
Sun 04:43:56 PM 40.9614 -85.0978 25° Northeast 279 321 4,300 -677 Descending Chicago Center

Login

Don't have an account? Register now (free) for customized features, flight alerts, and more!